sensor_id;sensor_type;location;lat;lon;timestamp;P1;durP1;ratioP1;P2;durP2;ratioP2
20069;SDS011;10195;50.868;4.382;2022-12-10T00:01:20;58.27;;;24.63;;
20069;SDS011;10195;50.868;4.382;2022-12-10T00:03:46;54.80;;;23.00;;
20069;SDS011;10195;50.868;4.382;2022-12-10T00:06:16;56.77;;;23.03;;
20069;SDS011;10195;50.868;4.382;2022-12-10T00:08:47;59.13;;;24.70;;
20069;SDS011;10195;50.868;4.382;2022-12-10T00:11:14;54.03;;;24.27;;
20069;SDS011;10195;50.868;4.382;2022-12-10T00:13:42;59.40;;;24.27;;
20069;SDS011;10195;50.868;4.382;2022-12-10T00:16:09;56.83;;;24.10;;
20069;SDS011;10195;50.868;4.382;2022-12-10T00:18:36;62.77;;;25.07;;
20069;SDS011;10195;50.868;4.382;2022-12-10T00:21:03;40.13;;;17.00;;
20069;SDS011;10195;50.868;4.382;2022-12-10T00:23:33;55.03;;;21.80;;
20069;SDS011;10195;50.868;4.382;2022-12-10T00:26:07;62.43;;;26.20;;
20069;SDS011;10195;50.868;4.382;2022-12-10T00:28:34;56.97;;;24.23;;
20069;SDS011;10195;50.868;4.382;2022-12-10T00:31:11;63.93;;;24.80;;
20069;SDS011;10195;50.868;4.382;2022-12-10T00:33:39;63.03;;;26.53;;
20069;SDS011;10195;50.868;4.382;2022-12-10T00:36:06;58.47;;;25.03;;
20069;SDS011;10195;50.868;4.382;2022-12-10T00:38:34;67.47;;;25.63;;
20069;SDS011;10195;50.868;4.382;2022-12-10T00:41:01;67.30;;;26.43;;
20069;SDS011;10195;50.868;4.382;2022-12-10T00:43:28;55.67;;;25.20;;
20069;SDS011;10195;50.868;4.382;2022-12-10T00:45:53;66.47;;;27.07;;
20069;SDS011;10195;50.868;4.382;2022-12-10T00:48:20;63.43;;;26.93;;
20069;SDS011;10195;50.868;4.382;2022-12-10T00:51:05;68.97;;;26.93;;
20069;SDS011;10195;50.868;4.382;2022-12-10T00:53:40;56.03;;;23.17;;
20069;SDS011;10195;50.868;4.382;2022-12-10T00:56:07;54.97;;;22.17;;
20069;SDS011;10195;50.868;4.382;2022-12-10T00:58:35;70.80;;;26.37;;
20069;SDS011;10195;50.868;4.382;2022-12-10T01:01:13;58.00;;;24.40;;
20069;SDS011;10195;50.868;4.382;2022-12-10T01:03:46;64.13;;;25.17;;
20069;SDS011;10195;50.868;4.382;2022-12-10T01:08:42;57.60;;;24.13;;
20069;SDS011;10195;50.868;4.382;2022-12-10T01:11:08;60.73;;;26.13;;
20069;SDS011;10195;50.868;4.382;2022-12-10T01:13:35;55.90;;;23.97;;
20069;SDS011;10195;50.868;4.382;2022-12-10T01:16:02;59.20;;;25.73;;
20069;SDS011;10195;50.868;4.382;2022-12-10T01:18:30;54.43;;;24.33;;
20069;SDS011;10195;50.868;4.382;2022-12-10T01:20:59;55.20;;;22.53;;
20069;SDS011;10195;50.868;4.382;2022-12-10T01:23:26;60.40;;;26.53;;
20069;SDS011;10195;50.868;4.382;2022-12-10T01:25:52;53.70;;;24.13;;
20069;SDS011;10195;50.868;4.382;2022-12-10T01:28:18;58.77;;;24.47;;
20069;SDS011;10195;50.868;4.382;2022-12-10T01:30:43;53.33;;;23.63;;
20069;SDS011;10195;50.868;4.382;2022-12-10T01:33:09;57.63;;;24.63;;
20069;SDS011;10195;50.868;4.382;2022-12-10T01:35:36;61.00;;;24.97;;
20069;SDS011;10195;50.868;4.382;2022-12-10T01:38:02;53.73;;;24.23;;
20069;SDS011;10195;50.868;4.382;2022-12-10T01:40:28;61.67;;;25.93;;
20069;SDS011;10195;50.868;4.382;2022-12-10T01:42:55;56.87;;;25.53;;
20069;SDS011;10195;50.868;4.382;2022-12-10T01:45:21;55.07;;;25.40;;
20069;SDS011;10195;50.868;4.382;2022-12-10T01:47:46;54.43;;;25.00;;
20069;SDS011;10195;50.868;4.382;2022-12-10T01:50:12;51.47;;;24.10;;
20069;SDS011;10195;50.868;4.382;2022-12-10T01:52:41;58.53;;;25.27;;
20069;SDS011;10195;50.868;4.382;2022-12-10T01:55:34;56.43;;;25.00;;
20069;SDS011;10195;50.868;4.382;2022-12-10T01:58:07;57.97;;;25.03;;
20069;SDS011;10195;50.868;4.382;2022-12-10T02:00:34;59.73;;;25.50;;
20069;SDS011;10195;50.868;4.382;2022-12-10T02:03:10;62.03;;;25.97;;
20069;SDS011;10195;50.868;4.382;2022-12-10T02:05:42;56.07;;;23.03;;
20069;SDS011;10195;50.868;4.382;2022-12-10T02:08:19;60.13;;;26.50;;
20069;SDS011;10195;50.868;4.382;2022-12-10T02:19:13;62.13;;;25.97;;
20069;SDS011;10195;50.868;4.382;2022-12-10T02:21:54;69.90;;;29.00;;
20069;SDS011;10195;50.868;4.382;2022-12-10T02:24:23;67.37;;;28.47;;
20069;SDS011;10195;50.868;4.382;2022-12-10T02:29:27;65.60;;;27.27;;
20069;SDS011;10195;50.868;4.382;2022-12-10T02:31:55;69.63;;;29.90;;
20069;SDS011;10195;50.868;4.382;2022-12-10T02:34:28;66.70;;;29.03;;
20069;SDS011;10195;50.868;4.382;2022-12-10T02:37:06;60.57;;;27.37;;
20069;SDS011;10195;50.868;4.382;2022-12-10T02:39:38;65.60;;;29.70;;
20069;SDS011;10195;50.868;4.382;2022-12-10T02:42:06;60.43;;;27.30;;
20069;SDS011;10195;50.868;4.382;2022-12-10T02:44:36;61.23;;;28.93;;
20069;SDS011;10195;50.868;4.382;2022-12-10T02:47:03;57.70;;;28.10;;
20069;SDS011;10195;50.868;4.382;2022-12-10T02:49:30;65.00;;;28.57;;
20069;SDS011;10195;50.868;4.382;2022-12-10T02:51:55;53.20;;;24.93;;
20069;SDS011;10195;50.868;4.382;2022-12-10T02:54:33;62.00;;;27.83;;
20069;SDS011;10195;50.868;4.382;2022-12-10T03:02:18;66.10;;;29.93;;
20069;SDS011;10195;50.868;4.382;2022-12-10T03:05:00;63.33;;;28.77;;
20069;SDS011;10195;50.868;4.382;2022-12-10T03:07:30;69.93;;;28.70;;
20069;SDS011;10195;50.868;4.382;2022-12-10T03:10:11;64.87;;;29.40;;
20069;SDS011;10195;50.868;4.382;2022-12-10T03:12:46;71.03;;;30.20;;
20069;SDS011;10195;50.868;4.382;2022-12-10T03:15:14;65.67;;;29.23;;
20069;SDS011;10195;50.868;4.382;2022-12-10T03:17:43;66.13;;;25.80;;
20069;SDS011;10195;50.868;4.382;2022-12-10T03:20:11;75.07;;;31.93;;
20069;SDS011;10195;50.868;4.382;2022-12-10T03:22:39;77.87;;;35.30;;
20069;SDS011;10195;50.868;4.382;2022-12-10T03:25:07;79.80;;;33.07;;
20069;SDS011;10195;50.868;4.382;2022-12-10T03:27:36;90.10;;;33.43;;
20069;SDS011;10195;50.868;4.382;2022-12-10T03:30:04;67.93;;;28.57;;
20069;SDS011;10195;50.868;4.382;2022-12-10T03:32:30;73.47;;;31.40;;
20069;SDS011;10195;50.868;4.382;2022-12-10T03:34:57;75.50;;;31.47;;
20069;SDS011;10195;50.868;4.382;2022-12-10T03:37:25;81.77;;;32.47;;
20069;SDS011;10195;50.868;4.382;2022-12-10T03:39:52;67.57;;;27.07;;
20069;SDS011;10195;50.868;4.382;2022-12-10T03:42:18;75.63;;;30.13;;
20069;SDS011;10195;50.868;4.382;2022-12-10T03:44:43;75.10;;;27.47;;
20069;SDS011;10195;50.868;4.382;2022-12-10T03:47:11;82.67;;;33.23;;
20069;SDS011;10195;50.868;4.382;2022-12-10T03:49:39;74.27;;;30.03;;
20069;SDS011;10195;50.868;4.382;2022-12-10T03:52:06;87.40;;;33.50;;
20069;SDS011;10195;50.868;4.382;2022-12-10T03:54:31;86.50;;;34.23;;
20069;SDS011;10195;50.868;4.382;2022-12-10T03:56:57;93.27;;;35.20;;
20069;SDS011;10195;50.868;4.382;2022-12-10T03:59:23;88.40;;;34.67;;
20069;SDS011;10195;50.868;4.382;2022-12-10T04:01:48;89.10;;;36.00;;
20069;SDS011;10195;50.868;4.382;2022-12-10T04:04:14;89.33;;;35.13;;
20069;SDS011;10195;50.868;4.382;2022-12-10T04:06:40;89.03;;;35.23;;
20069;SDS011;10195;50.868;4.382;2022-12-10T04:09:07;87.87;;;35.40;;
20069;SDS011;10195;50.868;4.382;2022-12-10T04:11:38;91.23;;;35.27;;
20069;SDS011;10195;50.868;4.382;2022-12-10T04:14:03;90.17;;;35.40;;
20069;SDS011;10195;50.868;4.382;2022-12-10T04:16:48;86.30;;;33.90;;
20069;SDS011;10195;50.868;4.382;2022-12-10T04:19:15;88.80;;;36.30;;
20069;SDS011;10195;50.868;4.382;2022-12-10T04:21:42;92.43;;;35.73;;
20069;SDS011;10195;50.868;4.382;2022-12-10T04:24:28;92.97;;;35.33;;
20069;SDS011;10195;50.868;4.382;2022-12-10T04:27:27;94.47;;;34.33;;
20069;SDS011;10195;50.868;4.382;2022-12-10T04:29:58;92.77;;;35.10;;
20069;SDS011;10195;50.868;4.382;2022-12-10T04:32:25;91.63;;;33.70;;
20069;SDS011;10195;50.868;4.382;2022-12-10T04:34:52;91.87;;;35.53;;
20069;SDS011;10195;50.868;4.382;2022-12-10T04:37:18;87.97;;;32.20;;
20069;SDS011;10195;50.868;4.382;2022-12-10T04:39:44;76.70;;;29.50;;
20069;SDS011;10195;50.868;4.382;2022-12-10T04:42:11;84.93;;;30.87;;
20069;SDS011;10195;50.868;4.382;2022-12-10T04:44:37;84.47;;;32.93;;
20069;SDS011;10195;50.868;4.382;2022-12-10T04:47:07;97.43;;;34.53;;
20069;SDS011;10195;50.868;4.382;2022-12-10T04:49:34;87.30;;;34.03;;
20069;SDS011;10195;50.868;4.382;2022-12-10T04:52:00;85.57;;;31.00;;
20069;SDS011;10195;50.868;4.382;2022-12-10T04:54:26;92.23;;;33.70;;
20069;SDS011;10195;50.868;4.382;2022-12-10T04:56:52;100.30;;;32.20;;
20069;SDS011;10195;50.868;4.382;2022-12-10T04:59:18;90.60;;;32.93;;
20069;SDS011;10195;50.868;4.382;2022-12-10T05:01:44;91.50;;;32.50;;
20069;SDS011;10195;50.868;4.382;2022-12-10T05:04:11;90.23;;;31.47;;
20069;SDS011;10195;50.868;4.382;2022-12-10T05:06:43;90.73;;;32.43;;
20069;SDS011;10195;50.868;4.382;2022-12-10T05:09:12;92.33;;;35.33;;
20069;SDS011;10195;50.868;4.382;2022-12-10T05:11:39;92.13;;;33.00;;
20069;SDS011;10195;50.868;4.382;2022-12-10T05:14:05;100.90;;;33.77;;
20069;SDS011;10195;50.868;4.382;2022-12-10T05:16:33;99.13;;;34.90;;
20069;SDS011;10195;50.868;4.382;2022-12-10T05:19:01;99.77;;;35.20;;
20069;SDS011;10195;50.868;4.382;2022-12-10T05:21:28;106.43;;;35.20;;
20069;SDS011;10195;50.868;4.382;2022-12-10T05:24:14;97.67;;;32.03;;
20069;SDS011;10195;50.868;4.382;2022-12-10T05:26:41;99.07;;;35.03;;
20069;SDS011;10195;50.868;4.382;2022-12-10T05:29:07;95.20;;;34.57;;
20069;SDS011;10195;50.868;4.382;2022-12-10T05:31:33;103.20;;;32.50;;
20069;SDS011;10195;50.868;4.382;2022-12-10T05:34:02;103.97;;;36.37;;
20069;SDS011;10195;50.868;4.382;2022-12-10T05:36:29;102.40;;;34.07;;
20069;SDS011;10195;50.868;4.382;2022-12-10T05:38:56;100.97;;;34.27;;
20069;SDS011;10195;50.868;4.382;2022-12-10T05:41:25;101.67;;;33.40;;
20069;SDS011;10195;50.868;4.382;2022-12-10T05:43:53;90.70;;;32.37;;
20069;SDS011;10195;50.868;4.382;2022-12-10T05:46:27;91.97;;;34.63;;
20069;SDS011;10195;50.868;4.382;2022-12-10T05:48:54;91.93;;;32.07;;
20069;SDS011;10195;50.868;4.382;2022-12-10T05:51:21;84.77;;;30.10;;
20069;SDS011;10195;50.868;4.382;2022-12-10T05:53:48;68.67;;;23.97;;
20069;SDS011;10195;50.868;4.382;2022-12-10T05:56:15;74.10;;;26.30;;
20069;SDS011;10195;50.868;4.382;2022-12-10T05:58:43;76.27;;;29.40;;
20069;SDS011;10195;50.868;4.382;2022-12-10T06:01:15;90.23;;;31.13;;
20069;SDS011;10195;50.868;4.382;2022-12-10T06:03:43;82.90;;;28.70;;
20069;SDS011;10195;50.868;4.382;2022-12-10T06:06:10;81.47;;;29.30;;
20069;SDS011;10195;50.868;4.382;2022-12-10T06:08:36;79.67;;;27.37;;
20069;SDS011;10195;50.868;4.382;2022-12-10T06:11:03;86.03;;;28.57;;
20069;SDS011;10195;50.868;4.382;2022-12-10T06:13:33;87.27;;;30.90;;
20069;SDS011;10195;50.868;4.382;2022-12-10T06:16:06;83.47;;;30.87;;
20069;SDS011;10195;50.868;4.382;2022-12-10T06:18:33;82.90;;;26.90;;
20069;SDS011;10195;50.868;4.382;2022-12-10T06:21:06;84.37;;;30.73;;
20069;SDS011;10195;50.868;4.382;2022-12-10T06:23:34;80.83;;;30.77;;
20069;SDS011;10195;50.868;4.382;2022-12-10T06:26:11;83.70;;;29.93;;
20069;SDS011;10195;50.868;4.382;2022-12-10T06:28:39;81.87;;;28.57;;
20069;SDS011;10195;50.868;4.382;2022-12-10T06:31:05;83.37;;;29.30;;
20069;SDS011;10195;50.868;4.382;2022-12-10T06:33:31;88.53;;;31.23;;
20069;SDS011;10195;50.868;4.382;2022-12-10T06:35:57;86.07;;;30.90;;
20069;SDS011;10195;50.868;4.382;2022-12-10T06:38:23;88.50;;;30.43;;
20069;SDS011;10195;50.868;4.382;2022-12-10T06:40:49;95.00;;;30.73;;
20069;SDS011;10195;50.868;4.382;2022-12-10T06:43:15;79.00;;;28.03;;
20069;SDS011;10195;50.868;4.382;2022-12-10T06:45:47;83.63;;;29.03;;
20069;SDS011;10195;50.868;4.382;2022-12-10T06:48:13;77.93;;;28.03;;
20069;SDS011;10195;50.868;4.382;2022-12-10T06:50:38;83.47;;;28.93;;
20069;SDS011;10195;50.868;4.382;2022-12-10T06:53:04;77.93;;;27.80;;
20069;SDS011;10195;50.868;4.382;2022-12-10T06:55:36;89.03;;;30.07;;
20069;SDS011;10195;50.868;4.382;2022-12-10T06:58:03;82.77;;;27.67;;
20069;SDS011;10195;50.868;4.382;2022-12-10T07:00:29;75.47;;;27.27;;
20069;SDS011;10195;50.868;4.382;2022-12-10T07:02:58;93.50;;;27.97;;
20069;SDS011;10195;50.868;4.382;2022-12-10T07:05:27;78.87;;;27.03;;
20069;SDS011;10195;50.868;4.382;2022-12-10T07:07:55;84.57;;;28.77;;
20069;SDS011;10195;50.868;4.382;2022-12-10T07:10:24;81.00;;;29.23;;
20069;SDS011;10195;50.868;4.382;2022-12-10T07:12:49;73.17;;;23.63;;
20069;SDS011;10195;50.868;4.382;2022-12-10T07:15:21;91.97;;;30.77;;
20069;SDS011;10195;50.868;4.382;2022-12-10T07:17:53;81.07;;;28.20;;
20069;SDS011;10195;50.868;4.382;2022-12-10T07:20:19;81.90;;;28.90;;
20069;SDS011;10195;50.868;4.382;2022-12-10T07:22:44;76.87;;;27.57;;
20069;SDS011;10195;50.868;4.382;2022-12-10T07:25:10;78.80;;;24.83;;
20069;SDS011;10195;50.868;4.382;2022-12-10T07:27:35;78.33;;;29.07;;
20069;SDS011;10195;50.868;4.382;2022-12-10T07:30:02;81.57;;;29.20;;
20069;SDS011;10195;50.868;4.382;2022-12-10T07:32:28;80.80;;;28.73;;
20069;SDS011;10195;50.868;4.382;2022-12-10T07:34:53;90.13;;;29.20;;
20069;SDS011;10195;50.868;4.382;2022-12-10T07:37:19;80.30;;;26.70;;
20069;SDS011;10195;50.868;4.382;2022-12-10T07:39:45;63.67;;;22.57;;
20069;SDS011;10195;50.868;4.382;2022-12-10T07:42:11;78.20;;;26.90;;
20069;SDS011;10195;50.868;4.382;2022-12-10T07:44:36;88.67;;;27.73;;
20069;SDS011;10195;50.868;4.382;2022-12-10T07:47:02;92.43;;;27.10;;
20069;SDS011;10195;50.868;4.382;2022-12-10T07:49:28;94.87;;;27.67;;
20069;SDS011;10195;50.868;4.382;2022-12-10T07:51:54;79.37;;;27.47;;
20069;SDS011;10195;50.868;4.382;2022-12-10T07:54:20;75.17;;;26.53;;
20069;SDS011;10195;50.868;4.382;2022-12-10T07:56:45;84.50;;;28.13;;
20069;SDS011;10195;50.868;4.382;2022-12-10T07:59:11;85.07;;;28.33;;
20069;SDS011;10195;50.868;4.382;2022-12-10T08:01:37;81.67;;;29.13;;
20069;SDS011;10195;50.868;4.382;2022-12-10T08:04:03;81.97;;;27.73;;
20069;SDS011;10195;50.868;4.382;2022-12-10T08:06:29;76.10;;;26.23;;
20069;SDS011;10195;50.868;4.382;2022-12-10T08:08:58;92.23;;;28.30;;
20069;SDS011;10195;50.868;4.382;2022-12-10T08:11:24;75.60;;;27.70;;
20069;SDS011;10195;50.868;4.382;2022-12-10T08:13:51;75.30;;;27.27;;
20069;SDS011;10195;50.868;4.382;2022-12-10T08:16:18;75.13;;;25.60;;
20069;SDS011;10195;50.868;4.382;2022-12-10T08:18:47;79.73;;;26.57;;
20069;SDS011;10195;50.868;4.382;2022-12-10T08:21:15;79.90;;;27.60;;
20069;SDS011;10195;50.868;4.382;2022-12-10T08:23:43;79.77;;;27.03;;
20069;SDS011;10195;50.868;4.382;2022-12-10T08:26:10;65.77;;;22.77;;
20069;SDS011;10195;50.868;4.382;2022-12-10T08:28:39;74.37;;;24.53;;
20069;SDS011;10195;50.868;4.382;2022-12-10T08:31:05;87.93;;;28.90;;
20069;SDS011;10195;50.868;4.382;2022-12-10T08:33:36;76.97;;;26.37;;
20069;SDS011;10195;50.868;4.382;2022-12-10T08:36:03;75.33;;;26.43;;
20069;SDS011;10195;50.868;4.382;2022-12-10T08:38:30;78.67;;;27.57;;
20069;SDS011;10195;50.868;4.382;2022-12-10T08:40:56;73.67;;;26.60;;
20069;SDS011;10195;50.868;4.382;2022-12-10T08:43:23;71.20;;;26.60;;
20069;SDS011;10195;50.868;4.382;2022-12-10T08:45:49;71.13;;;25.87;;
20069;SDS011;10195;50.868;4.382;2022-12-10T08:48:14;72.97;;;25.57;;
20069;SDS011;10195;50.868;4.382;2022-12-10T08:50:40;70.90;;;24.60;;
20069;SDS011;10195;50.868;4.382;2022-12-10T08:53:06;79.13;;;26.40;;
20069;SDS011;10195;50.868;4.382;2022-12-10T08:55:32;73.87;;;26.67;;
20069;SDS011;10195;50.868;4.382;2022-12-10T08:57:58;73.93;;;25.23;;
20069;SDS011;10195;50.868;4.382;2022-12-10T09:00:25;64.93;;;24.47;;
20069;SDS011;10195;50.868;4.382;2022-12-10T09:02:51;73.17;;;24.27;;
20069;SDS011;10195;50.868;4.382;2022-12-10T09:05:16;67.13;;;22.33;;
20069;SDS011;10195;50.868;4.382;2022-12-10T09:07:42;68.87;;;24.07;;
20069;SDS011;10195;50.868;4.382;2022-12-10T09:10:09;73.60;;;25.00;;
20069;SDS011;10195;50.868;4.382;2022-12-10T09:12:36;71.87;;;25.03;;
20069;SDS011;10195;50.868;4.382;2022-12-10T09:15:02;62.70;;;23.17;;
20069;SDS011;10195;50.868;4.382;2022-12-10T09:17:28;54.03;;;18.90;;
20069;SDS011;10195;50.868;4.382;2022-12-10T09:19:54;67.27;;;24.30;;
20069;SDS011;10195;50.868;4.382;2022-12-10T09:22:21;69.50;;;23.73;;
20069;SDS011;10195;50.868;4.382;2022-12-10T09:24:46;65.13;;;24.93;;
20069;SDS011;10195;50.868;4.382;2022-12-10T09:27:12;39.57;;;15.30;;
20069;SDS011;10195;50.868;4.382;2022-12-10T09:29:38;72.80;;;25.47;;
20069;SDS011;10195;50.868;4.382;2022-12-10T09:32:04;74.97;;;26.30;;
20069;SDS011;10195;50.868;4.382;2022-12-10T09:34:29;77.37;;;27.13;;
20069;SDS011;10195;50.868;4.382;2022-12-10T09:36:55;71.60;;;25.93;;
20069;SDS011;10195;50.868;4.382;2022-12-10T09:39:21;75.10;;;26.80;;
20069;SDS011;10195;50.868;4.382;2022-12-10T09:44:35;71.03;;;26.80;;
20069;SDS011;10195;50.868;4.382;2022-12-10T09:47:12;65.60;;;22.90;;
20069;SDS011;10195;50.868;4.382;2022-12-10T09:52:17;58.20;;;19.57;;
20069;SDS011;10195;50.868;4.382;2022-12-10T09:57:25;75.40;;;26.87;;
20069;SDS011;10195;50.868;4.382;2022-12-10T09:59:55;63.80;;;23.10;;
20069;SDS011;10195;50.868;4.382;2022-12-10T10:02:25;66.57;;;26.00;;
20069;SDS011;10195;50.868;4.382;2022-12-10T10:05:16;66.87;;;25.97;;
20069;SDS011;10195;50.868;4.382;2022-12-10T10:07:48;70.53;;;24.63;;
20069;SDS011;10195;50.868;4.382;2022-12-10T10:10:27;77.57;;;26.77;;
20069;SDS011;10195;50.868;4.382;2022-12-10T10:12:58;72.77;;;25.13;;
20069;SDS011;10195;50.868;4.382;2022-12-10T10:15:36;68.20;;;25.27;;
20069;SDS011;10195;50.868;4.382;2022-12-10T10:18:09;77.57;;;26.37;;
20069;SDS011;10195;50.868;4.382;2022-12-10T10:20:48;68.63;;;24.03;;
20069;SDS011;10195;50.868;4.382;2022-12-10T10:23:15;72.97;;;26.43;;
20069;SDS011;10195;50.868;4.382;2022-12-10T10:25:42;67.87;;;25.70;;
20069;SDS011;10195;50.868;4.382;2022-12-10T10:28:12;79.60;;;26.60;;
20069;SDS011;10195;50.868;4.382;2022-12-10T10:30:42;70.17;;;27.37;;
20069;SDS011;10195;50.868;4.382;2022-12-10T10:33:10;71.13;;;25.90;;
20069;SDS011;10195;50.868;4.382;2022-12-10T10:35:43;76.23;;;26.27;;
20069;SDS011;10195;50.868;4.382;2022-12-10T10:38:14;70.73;;;25.37;;
20069;SDS011;10195;50.868;4.382;2022-12-10T10:40:44;55.57;;;19.10;;
20069;SDS011;10195;50.868;4.382;2022-12-10T10:43:25;68.10;;;24.53;;
20069;SDS011;10195;50.868;4.382;2022-12-10T10:48:21;63.03;;;23.13;;
20069;SDS011;10195;50.868;4.382;2022-12-10T10:50:49;68.30;;;23.13;;
20069;SDS011;10195;50.868;4.382;2022-12-10T10:53:29;72.97;;;25.40;;
20069;SDS011;10195;50.868;4.382;2022-12-10T10:56:11;67.10;;;25.20;;
20069;SDS011;10195;50.868;4.382;2022-12-10T11:01:44;70.93;;;25.67;;
20069;SDS011;10195;50.868;4.382;2022-12-10T11:04:24;67.00;;;24.37;;
20069;SDS011;10195;50.868;4.382;2022-12-10T11:06:55;73.10;;;25.57;;
20069;SDS011;10195;50.868;4.382;2022-12-10T11:09:26;69.53;;;24.73;;
20069;SDS011;10195;50.868;4.382;2022-12-10T11:12:01;65.63;;;23.47;;
20069;SDS011;10195;50.868;4.382;2022-12-10T11:14:43;62.73;;;21.97;;
20069;SDS011;10195;50.868;4.382;2022-12-10T11:19:59;70.60;;;25.97;;
20069;SDS011;10195;50.868;4.382;2022-12-10T11:23:19;53.63;;;20.57;;
20069;SDS011;10195;50.868;4.382;2022-12-10T11:28:37;68.10;;;23.70;;
20069;SDS011;10195;50.868;4.382;2022-12-10T11:31:27;73.67;;;23.77;;
20069;SDS011;10195;50.868;4.382;2022-12-10T11:34:21;67.47;;;23.17;;
20069;SDS011;10195;50.868;4.382;2022-12-10T11:48:49;66.50;;;22.97;;
20069;SDS011;10195;50.868;4.382;2022-12-10T11:55:11;66.13;;;21.53;;
20069;SDS011;10195;50.868;4.382;2022-12-10T11:57:28;67.83;;;23.87;;
20069;SDS011;10195;50.868;4.382;2022-12-10T12:00:20;62.43;;;21.73;;
20069;SDS011;10195;50.868;4.382;2022-12-10T12:08:35;60.67;;;22.70;;
20069;SDS011;10195;50.868;4.382;2022-12-10T12:14:31;73.67;;;24.13;;
20069;SDS011;10195;50.868;4.382;2022-12-10T12:19:56;65.93;;;21.63;;
20069;SDS011;10195;50.868;4.382;2022-12-10T12:22:26;68.63;;;24.77;;
20069;SDS011;10195;50.868;4.382;2022-12-10T12:27:50;62.13;;;20.67;;
20069;SDS011;10195;50.868;4.382;2022-12-10T12:30:29;66.03;;;23.77;;
20069;SDS011;10195;50.868;4.382;2022-12-10T12:32:58;60.23;;;21.33;;
20069;SDS011;10195;50.868;4.382;2022-12-10T12:35:47;63.70;;;23.10;;
20069;SDS011;10195;50.868;4.382;2022-12-10T12:46:12;52.30;;;21.10;;
20069;SDS011;10195;50.868;4.382;2022-12-10T12:51:36;57.93;;;22.27;;
20069;SDS011;10195;50.868;4.382;2022-12-10T12:54:08;52.53;;;21.27;;
20069;SDS011;10195;50.868;4.382;2022-12-10T13:02:00;57.17;;;21.37;;
20069;SDS011;10195;50.868;4.382;2022-12-10T13:04:39;53.90;;;19.57;;
20069;SDS011;10195;50.868;4.382;2022-12-10T13:09:44;53.50;;;21.03;;
20069;SDS011;10195;50.868;4.382;2022-12-10T13:17:25;49.87;;;20.40;;
20069;SDS011;10195;50.868;4.382;2022-12-10T13:22:58;54.07;;;19.90;;
20069;SDS011;10195;50.868;4.382;2022-12-10T13:26:16;50.23;;;19.13;;
20069;SDS011;10195;50.868;4.382;2022-12-10T13:45:01;42.83;;;17.77;;
20069;SDS011;10195;50.868;4.382;2022-12-10T13:50:04;44.13;;;18.13;;
20069;SDS011;10195;50.868;4.382;2022-12-10T14:01:29;41.60;;;16.97;;
20069;SDS011;10195;50.868;4.382;2022-12-10T14:04:18;51.40;;;17.50;;
20069;SDS011;10195;50.868;4.382;2022-12-10T14:07:19;44.47;;;17.83;;
20069;SDS011;10195;50.868;4.382;2022-12-10T14:09:52;50.63;;;19.23;;
20069;SDS011;10195;50.868;4.382;2022-12-10T14:12:24;50.00;;;19.80;;
20069;SDS011;10195;50.868;4.382;2022-12-10T14:15:04;40.33;;;16.93;;
20069;SDS011;10195;50.868;4.382;2022-12-10T14:17:40;52.87;;;18.97;;
20069;SDS011;10195;50.868;4.382;2022-12-10T14:20:14;49.83;;;18.70;;
20069;SDS011;10195;50.868;4.382;2022-12-10T14:22:46;48.77;;;17.90;;
20069;SDS011;10195;50.868;4.382;2022-12-10T14:25:14;43.60;;;17.30;;
20069;SDS011;10195;50.868;4.382;2022-12-10T14:27:46;55.80;;;21.03;;
20069;SDS011;10195;50.868;4.382;2022-12-10T14:30:17;52.30;;;20.73;;
20069;SDS011;10195;50.868;4.382;2022-12-10T14:32:53;57.90;;;22.07;;
20069;SDS011;10195;50.868;4.382;2022-12-10T14:35:25;49.70;;;18.13;;
20069;SDS011;10195;50.868;4.382;2022-12-10T14:37:53;49.83;;;18.87;;
20069;SDS011;10195;50.868;4.382;2022-12-10T14:40:40;50.40;;;19.07;;
20069;SDS011;10195;50.868;4.382;2022-12-10T14:43:52;46.60;;;17.40;;
20069;SDS011;10195;50.868;4.382;2022-12-10T14:46:09;41.03;;;15.70;;
20069;SDS011;10195;50.868;4.382;2022-12-10T14:48:40;47.20;;;17.43;;
20069;SDS011;10195;50.868;4.382;2022-12-10T14:51:14;41.87;;;16.87;;
20069;SDS011;10195;50.868;4.382;2022-12-10T14:53:44;49.07;;;17.60;;
20069;SDS011;10195;50.868;4.382;2022-12-10T14:56:11;43.00;;;17.90;;
20069;SDS011;10195;50.868;4.382;2022-12-10T14:59:12;48.97;;;19.07;;
20069;SDS011;10195;50.868;4.382;2022-12-10T15:01:40;53.10;;;16.83;;
20069;SDS011;10195;50.868;4.382;2022-12-10T15:04:13;38.07;;;16.93;;
20069;SDS011;10195;50.868;4.382;2022-12-10T15:06:41;49.47;;;17.13;;
20069;SDS011;10195;50.868;4.382;2022-12-10T15:09:16;49.97;;;18.53;;
20069;SDS011;10195;50.868;4.382;2022-12-10T15:14:44;51.27;;;18.47;;
20069;SDS011;10195;50.868;4.382;2022-12-10T15:20:18;59.23;;;18.60;;
20069;SDS011;10195;50.868;4.382;2022-12-10T15:22:51;54.33;;;19.00;;
20069;SDS011;10195;50.868;4.382;2022-12-10T15:25:27;57.47;;;19.80;;
20069;SDS011;10195;50.868;4.382;2022-12-10T15:27:55;48.77;;;17.83;;
20069;SDS011;10195;50.868;4.382;2022-12-10T15:39:18;49.20;;;17.90;;
20069;SDS011;10195;50.868;4.382;2022-12-10T15:41:59;45.30;;;17.87;;
20069;SDS011;10195;50.868;4.382;2022-12-10T15:44:39;48.33;;;17.77;;
20069;SDS011;10195;50.868;4.382;2022-12-10T15:49:45;42.63;;;17.07;;
20069;SDS011;10195;50.868;4.382;2022-12-10T15:52:12;47.27;;;18.20;;
20069;SDS011;10195;50.868;4.382;2022-12-10T15:54:40;46.50;;;18.17;;
20069;SDS011;10195;50.868;4.382;2022-12-10T15:57:14;52.00;;;17.90;;
20069;SDS011;10195;50.868;4.382;2022-12-10T15:59:43;49.93;;;18.90;;
20069;SDS011;10195;50.868;4.382;2022-12-10T16:04:54;50.57;;;17.13;;
20069;SDS011;10195;50.868;4.382;2022-12-10T16:07:20;50.17;;;17.80;;
20069;SDS011;10195;50.868;4.382;2022-12-10T16:09:46;42.70;;;18.50;;
20069;SDS011;10195;50.868;4.382;2022-12-10T16:12:12;43.43;;;18.80;;
20069;SDS011;10195;50.868;4.382;2022-12-10T16:14:47;41.63;;;18.67;;
20069;SDS011;10195;50.868;4.382;2022-12-10T16:17:21;44.10;;;16.60;;
20069;SDS011;10195;50.868;4.382;2022-12-10T16:19:47;43.00;;;18.27;;
20069;SDS011;10195;50.868;4.382;2022-12-10T16:22:13;42.67;;;18.13;;
20069;SDS011;10195;50.868;4.382;2022-12-10T16:24:39;47.83;;;19.20;;
20069;SDS011;10195;50.868;4.382;2022-12-10T16:27:09;42.77;;;16.97;;
20069;SDS011;10195;50.868;4.382;2022-12-10T16:29:40;48.20;;;18.63;;
20069;SDS011;10195;50.868;4.382;2022-12-10T16:32:10;47.63;;;19.13;;
20069;SDS011;10195;50.868;4.382;2022-12-10T16:34:37;47.50;;;18.87;;
20069;SDS011;10195;50.868;4.382;2022-12-10T16:37:04;49.17;;;19.43;;
20069;SDS011;10195;50.868;4.382;2022-12-10T16:39:30;43.77;;;18.30;;
20069;SDS011;10195;50.868;4.382;2022-12-10T16:41:56;44.73;;;17.30;;
20069;SDS011;10195;50.868;4.382;2022-12-10T16:44:22;43.50;;;18.30;;
20069;SDS011;10195;50.868;4.382;2022-12-10T16:46:48;42.07;;;18.83;;
20069;SDS011;10195;50.868;4.382;2022-12-10T16:49:13;48.43;;;19.43;;
20069;SDS011;10195;50.868;4.382;2022-12-10T16:51:39;41.80;;;16.97;;
20069;SDS011;10195;50.868;4.382;2022-12-10T16:54:08;46.40;;;19.03;;
20069;SDS011;10195;50.868;4.382;2022-12-10T16:56:35;46.87;;;19.93;;
20069;SDS011;10195;50.868;4.382;2022-12-10T16:59:02;50.00;;;19.13;;
20069;SDS011;10195;50.868;4.382;2022-12-10T17:01:28;46.53;;;19.33;;